Terminal Aerodrome Forecast
Issued by NWS

Home | Current Version | Previous Version | Graphics & Text | Print | Product List | Glossary On
Versions: 1 2 3 4 5 6 7 8 9 10 11 12 13 14 15 16 17 18 19 20 21 22 23 24 25 26 27 28 29 30 31 32 33 34
000
FTUS43 KGRB 150900 AAA
TAFRHI
TAF AMD
KRHI 150924Z 1509/1606 VRB03KT 4SM BR FEW002 SCT050 OVC140
      TEMPO 1509/1513 1 1/2SM BR SCT002 BKN050
     FM151400 29006KT P6SM SCT040 BKN090
     FM151900 31007KT P6SM SCT040 SCT070
     FM152200 31005KT P6SM FEW050 SCT070=

USA.gov is the U.S. government's official web portal to all federal, state and local government web resources and services.